sensor_id;sensor_type;location;lat;lon;timestamp;pressure;altitude;pressure_sealevel;temperature;humidity
4767;BME280;2397;53.576;9.746;2023-07-29T00:00:09;100705.22;;;18.18;91.04
4767;BME280;2397;53.576;9.746;2023-07-29T00:02:40;100702.94;;;18.15;91.18
4767;BME280;2397;53.576;9.746;2023-07-29T00:05:07;100698.66;;;18.21;91.20
4767;BME280;2397;53.576;9.746;2023-07-29T00:07:34;100692.25;;;18.15;91.49
4767;BME280;2397;53.576;9.746;2023-07-29T00:10:00;100679.75;;;18.16;91.82
4767;BME280;2397;53.576;9.746;2023-07-29T00:12:27;100678.91;;;18.15;91.88
4767;BME280;2397;53.576;9.746;2023-07-29T00:14:53;100673.75;;;18.14;92.05
4767;BME280;2397;53.576;9.746;2023-07-29T00:17:20;100679.34;;;18.19;92.04
4767;BME280;2397;53.576;9.746;2023-07-29T00:19:47;100681.78;;;18.20;91.64
4767;BME280;2397;53.576;9.746;2023-07-29T00:22:13;100674.00;;;18.19;91.53
4767;BME280;2397;53.576;9.746;2023-07-29T00:24:40;100675.63;;;18.20;91.39
4767;BME280;2397;53.576;9.746;2023-07-29T00:27:07;100668.63;;;18.12;91.22
4767;BME280;2397;53.576;9.746;2023-07-29T00:29:33;100671.47;;;18.11;91.26
4767;BME280;2397;53.576;9.746;2023-07-29T00:32:00;100661.81;;;18.03;91.91
4767;BME280;2397;53.576;9.746;2023-07-29T00:34:27;100657.50;;;18.02;92.18
4767;BME280;2397;53.576;9.746;2023-07-29T00:36:53;100677.22;;;18.01;92.29
4767;BME280;2397;53.576;9.746;2023-07-29T00:39:20;100673.66;;;17.88;93.37
4767;BME280;2397;53.576;9.746;2023-07-29T00:41:46;100669.75;;;17.84;93.94
4767;BME280;2397;53.576;9.746;2023-07-29T00:44:13;100662.38;;;17.86;94.06
4767;BME280;2397;53.576;9.746;2023-07-29T00:46:40;100657.44;;;17.89;94.08
4767;BME280;2397;53.576;9.746;2023-07-29T00:49:07;100650.66;;;17.87;94.65
4767;BME280;2397;53.576;9.746;2023-07-29T00:51:34;100642.66;;;17.87;95.06
4767;BME280;2397;53.576;9.746;2023-07-29T00:54:00;100645.53;;;17.92;94.74
4767;BME280;2397;53.576;9.746;2023-07-29T00:56:27;100636.94;;;17.96;94.73
4767;BME280;2397;53.576;9.746;2023-07-29T00:58:54;100637.78;;;17.97;94.77
4767;BME280;2397;53.576;9.746;2023-07-29T01:01:26;100643.53;;;18.00;94.49
4767;BME280;2397;53.576;9.746;2023-07-29T01:03:53;100640.66;;;18.02;94.43
4767;BME280;2397;53.576;9.746;2023-07-29T01:09:10;100638.19;;;18.00;95.04
4767;BME280;2397;53.576;9.746;2023-07-29T01:11:55;100645.16;;;17.95;95.54
4767;BME280;2397;53.576;9.746;2023-07-29T01:14:39;100641.84;;;17.93;96.08
4767;BME280;2397;53.576;9.746;2023-07-29T01:17:09;100644.16;;;18.02;95.73
4767;BME280;2397;53.576;9.746;2023-07-29T01:20:15;100638.19;;;18.07;95.69
4767;BME280;2397;53.576;9.746;2023-07-29T01:22:43;100644.97;;;18.09;95.91
4767;BME280;2397;53.576;9.746;2023-07-29T01:25:10;100645.59;;;18.11;95.89
4767;BME280;2397;53.576;9.746;2023-07-29T01:27:37;100647.25;;;18.12;96.08
4767;BME280;2397;53.576;9.746;2023-07-29T01:30:05;100640.66;;;18.15;97.07
4767;BME280;2397;53.576;9.746;2023-07-29T01:32:43;100639.03;;;18.14;97.83
4767;BME280;2397;53.576;9.746;2023-07-29T01:35:21;100645.63;;;18.18;98.13
4767;BME280;2397;53.576;9.746;2023-07-29T01:37:55;100637.19;;;18.21;98.54
4767;BME280;2397;53.576;9.746;2023-07-29T01:40:23;100635.38;;;18.21;100.00
4767;BME280;2397;53.576;9.746;2023-07-29T01:42:52;100630.22;;;18.20;99.87
4767;BME280;2397;53.576;9.746;2023-07-29T01:45:23;100628.78;;;18.24;100.00
4767;BME280;2397;53.576;9.746;2023-07-29T01:47:50;100623.03;;;18.27;100.00
4767;BME280;2397;53.576;9.746;2023-07-29T01:50:17;100617.31;;;18.30;100.00
4767;BME280;2397;53.576;9.746;2023-07-29T01:52:44;100613.38;;;18.32;100.00
4767;BME280;2397;53.576;9.746;2023-07-29T01:55:10;100607.00;;;18.33;100.00
4767;BME280;2397;53.576;9.746;2023-07-29T01:57:37;100608.28;;;18.37;100.00
4767;BME280;2397;53.576;9.746;2023-07-29T02:00:04;100610.94;;;18.37;100.00
4767;BME280;2397;53.576;9.746;2023-07-29T02:02:39;100611.34;;;18.41;100.00
4767;BME280;2397;53.576;9.746;2023-07-29T02:05:06;100605.19;;;18.47;100.00
4767;BME280;2397;53.576;9.746;2023-07-29T02:07:33;100609.50;;;18.48;100.00
4767;BME280;2397;53.576;9.746;2023-07-29T02:09:59;100607.88;;;18.47;100.00
4767;BME280;2397;53.576;9.746;2023-07-29T02:12:26;100605.84;;;18.49;100.00
4767;BME280;2397;53.576;9.746;2023-07-29T02:14:53;100607.66;;;18.55;100.00
4767;BME280;2397;53.576;9.746;2023-07-29T02:17:19;100600.88;;;18.52;100.00
4767;BME280;2397;53.576;9.746;2023-07-29T02:19:46;100594.50;;;18.53;100.00
4767;BME280;2397;53.576;9.746;2023-07-29T02:22:14;100597.59;;;18.57;100.00
4767;BME280;2397;53.576;9.746;2023-07-29T02:24:40;100590.81;;;18.61;100.00
4767;BME280;2397;53.576;9.746;2023-07-29T02:27:07;100595.75;;;18.64;100.00
4767;BME280;2397;53.576;9.746;2023-07-29T02:29:34;100591.22;;;18.64;100.00
4767;BME280;2397;53.576;9.746;2023-07-29T02:32:01;100598.03;;;18.67;100.00
4767;BME280;2397;53.576;9.746;2023-07-29T02:34:27;100606.63;;;18.69;100.00
4767;BME280;2397;53.576;9.746;2023-07-29T02:36:54;100606.63;;;18.69;100.00
4767;BME280;2397;53.576;9.746;2023-07-29T02:39:21;100600.06;;;18.65;100.00
4767;BME280;2397;53.576;9.746;2023-07-29T02:41:48;100606.44;;;18.64;100.00
4767;BME280;2397;53.576;9.746;2023-07-29T02:44:15;100607.25;;;18.58;100.00
4767;BME280;2397;53.576;9.746;2023-07-29T02:46:42;100600.88;;;18.59;100.00
4767;BME280;2397;53.576;9.746;2023-07-29T02:49:08;100598.00;;;18.60;100.00
4767;BME280;2397;53.576;9.746;2023-07-29T02:51:35;100596.75;;;18.63;100.00
4767;BME280;2397;53.576;9.746;2023-07-29T02:54:01;100588.75;;;18.63;100.00
4767;BME280;2397;53.576;9.746;2023-07-29T02:56:28;100597.59;;;18.57;100.00
4767;BME280;2397;53.576;9.746;2023-07-29T02:58:57;100600.06;;;18.52;100.00
4767;BME280;2397;53.576;9.746;2023-07-29T03:01:23;100597.81;;;18.55;100.00
4767;BME280;2397;53.576;9.746;2023-07-29T03:03:51;100597.59;;;18.57;100.00
4767;BME280;2397;53.576;9.746;2023-07-29T03:06:18;100592.25;;;18.57;100.00
4767;BME280;2397;53.576;9.746;2023-07-29T03:08:44;100597.59;;;18.57;100.00
4767;BME280;2397;53.576;9.746;2023-07-29T03:11:15;100594.72;;;18.58;100.00
4767;BME280;2397;53.576;9.746;2023-07-29T03:13:43;100593.50;;;18.61;100.00
4767;BME280;2397;53.576;9.746;2023-07-29T03:16:14;100595.13;;;18.55;100.00
4767;BME280;2397;53.576;9.746;2023-07-29T03:18:48;100596.78;;;18.50;100.00
4767;BME280;2397;53.576;9.746;2023-07-29T03:21:15;100600.47;;;18.49;100.00
4767;BME280;2397;53.576;9.746;2023-07-29T03:23:42;100594.31;;;18.48;100.00
4767;BME280;2397;53.576;9.746;2023-07-29T03:26:09;100590.19;;;18.46;100.00
4767;BME280;2397;53.576;9.746;2023-07-29T03:28:40;100585.25;;;18.43;100.00
4767;BME280;2397;53.576;9.746;2023-07-29T03:31:07;100584.03;;;18.39;100.00
4767;BME280;2397;53.576;9.746;2023-07-29T03:33:34;100596.75;;;18.37;100.00
4767;BME280;2397;53.576;9.746;2023-07-29T03:36:01;100599.03;;;18.40;100.00
4767;BME280;2397;53.576;9.746;2023-07-29T03:38:28;100600.06;;;18.39;100.00
4767;BME280;2397;53.576;9.746;2023-07-29T03:40:56;100589.56;;;18.44;100.00
4767;BME280;2397;53.576;9.746;2023-07-29T03:43:23;100594.72;;;18.39;100.00
4767;BME280;2397;53.576;9.746;2023-07-29T03:45:50;100596.16;;;18.35;100.00
4767;BME280;2397;53.576;9.746;2023-07-29T03:48:16;100593.06;;;18.38;100.00
4767;BME280;2397;53.576;9.746;2023-07-29T03:50:43;100599.84;;;18.40;100.00
4767;BME280;2397;53.576;9.746;2023-07-29T03:53:09;100607.28;;;18.45;100.00
4767;BME280;2397;53.576;9.746;2023-07-29T03:55:36;100598.00;;;18.41;100.00
4767;BME280;2397;53.576;9.746;2023-07-29T03:58:03;100599.63;;;18.35;100.00
4767;BME280;2397;53.576;9.746;2023-07-29T04:00:30;100599.84;;;18.34;100.00
4767;BME280;2397;53.576;9.746;2023-07-29T04:02:56;100606.19;;;18.33;100.00
4767;BME280;2397;53.576;9.746;2023-07-29T04:05:23;100608.66;;;18.21;100.00
4767;BME280;2397;53.576;9.746;2023-07-29T04:07:49;100599.19;;;18.19;100.00
4767;BME280;2397;53.576;9.746;2023-07-29T04:10:16;100594.47;;;18.21;100.00
4767;BME280;2397;53.576;9.746;2023-07-29T04:12:43;100597.13;;;18.14;100.00
4767;BME280;2397;53.576;9.746;2023-07-29T04:15:10;100602.06;;;18.17;100.00
4767;BME280;2397;53.576;9.746;2023-07-29T04:17:36;100596.53;;;18.19;100.00
4767;BME280;2397;53.576;9.746;2023-07-29T04:20:04;100596.72;;;18.24;100.00
4767;BME280;2397;53.576;9.746;2023-07-29T04:22:33;100587.69;;;18.25;100.00
4767;BME280;2397;53.576;9.746;2023-07-29T04:25:00;100594.66;;;18.26;100.00
4767;BME280;2397;53.576;9.746;2023-07-29T04:27:26;100589.31;;;18.26;100.00
4767;BME280;2397;53.576;9.746;2023-07-29T04:29:53;100588.50;;;18.32;100.00
4767;BME280;2397;53.576;9.746;2023-07-29T04:32:19;100599.63;;;18.35;100.00
4767;BME280;2397;53.576;9.746;2023-07-29T04:34:46;100592.00;;;18.32;100.00
4767;BME280;2397;53.576;9.746;2023-07-29T04:37:12;100593.66;;;18.27;100.00
4767;BME280;2397;53.576;9.746;2023-07-29T04:39:39;100589.53;;;18.31;100.00
4767;BME280;2397;53.576;9.746;2023-07-29T04:42:05;100589.13;;;18.21;100.00
4767;BME280;2397;53.576;9.746;2023-07-29T04:44:34;100587.47;;;18.20;100.00
4767;BME280;2397;53.576;9.746;2023-07-29T04:47:01;100595.50;;;18.26;100.00
4767;BME280;2397;53.576;9.746;2023-07-29T04:49:28;100587.28;;;18.21;100.00
4767;BME280;2397;53.576;9.746;2023-07-29T04:51:54;100586.44;;;18.21;100.00
4767;BME280;2397;53.576;9.746;2023-07-29T04:54:21;100580.28;;;18.14;100.00
4767;BME280;2397;53.576;9.746;2023-07-29T04:56:48;100585.22;;;18.10;100.00
4767;BME280;2397;53.576;9.746;2023-07-29T04:59:16;100581.31;;;18.13;100.00
4767;BME280;2397;53.576;9.746;2023-07-29T05:01:43;100588.06;;;18.09;100.00
4767;BME280;2397;53.576;9.746;2023-07-29T05:04:10;100581.91;;;18.15;100.00
4767;BME280;2397;53.576;9.746;2023-07-29T05:06:36;100574.31;;;18.18;100.00
4767;BME280;2397;53.576;9.746;2023-07-29T05:09:14;100567.53;;;18.22;100.00
4767;BME280;2397;53.576;9.746;2023-07-29T05:11:41;100568.78;;;18.20;100.00
4767;BME280;2397;53.576;9.746;2023-07-29T05:14:08;100573.09;;;18.21;100.00
4767;BME280;2397;53.576;9.746;2023-07-29T05:16:36;100583.16;;;18.25;100.00
4767;BME280;2397;53.576;9.746;2023-07-29T05:19:04;100579.91;;;18.36;100.00
4767;BME280;2397;53.576;9.746;2023-07-29T05:21:30;100572.28;;;18.33;100.00
4767;BME280;2397;53.576;9.746;2023-07-29T05:23:57;100580.94;;;18.35;100.00
4767;BME280;2397;53.576;9.746;2023-07-29T05:26:24;100571.25;;;18.41;100.00
4767;BME280;2397;53.576;9.746;2023-07-29T05:28:51;100573.34;;;18.39;100.00
4767;BME280;2397;53.576;9.746;2023-07-29T05:31:17;100585.06;;;18.51;100.00
4767;BME280;2397;53.576;9.746;2023-07-29T05:33:44;100580.31;;;18.46;100.00
4767;BME280;2397;53.576;9.746;2023-07-29T05:36:11;100578.66;;;18.52;100.00
4767;BME280;2397;53.576;9.746;2023-07-29T05:38:37;100571.28;;;18.54;100.00
4767;BME280;2397;53.576;9.746;2023-07-29T05:41:04;100577.84;;;18.58;100.00
4767;BME280;2397;53.576;9.746;2023-07-29T05:43:31;100588.56;;;18.51;100.00
4767;BME280;2397;53.576;9.746;2023-07-29T05:45:57;100591.63;;;18.55;100.00
4767;BME280;2397;53.576;9.746;2023-07-29T05:48:24;100595.13;;;18.49;100.00
4767;BME280;2397;53.576;9.746;2023-07-29T05:50:50;100597.19;;;18.53;100.00
4767;BME280;2397;53.576;9.746;2023-07-29T05:53:17;100595.13;;;18.62;100.00
4767;BME280;2397;53.576;9.746;2023-07-29T05:55:44;100585.88;;;18.58;100.00
4767;BME280;2397;53.576;9.746;2023-07-29T05:58:10;100588.13;;;18.61;100.00
4767;BME280;2397;53.576;9.746;2023-07-29T06:00:37;100585.66;;;18.66;100.00
4767;BME280;2397;53.576;9.746;2023-07-29T06:03:04;100583.22;;;18.71;100.00
4767;BME280;2397;53.576;9.746;2023-07-29T06:05:31;100571.25;;;18.80;100.00
4767;BME280;2397;53.576;9.746;2023-07-29T06:07:58;100572.28;;;18.79;100.00
4767;BME280;2397;53.576;9.746;2023-07-29T06:10:25;100569.00;;;18.77;100.00
4767;BME280;2397;53.576;9.746;2023-07-29T06:12:52;100570.44;;;18.86;100.00
4767;BME280;2397;53.576;9.746;2023-07-29T06:15:18;100564.66;;;18.89;100.00
4767;BME280;2397;53.576;9.746;2023-07-29T06:17:48;100565.69;;;18.94;100.00
4767;BME280;2397;53.576;9.746;2023-07-29T06:20:15;100561.34;;;19.00;100.00
4767;BME280;2397;53.576;9.746;2023-07-29T06:22:42;100563.41;;;18.98;100.00
4767;BME280;2397;53.576;9.746;2023-07-29T06:25:09;100559.31;;;18.89;100.00
4767;BME280;2397;53.576;9.746;2023-07-29T06:27:37;100551.66;;;18.99;100.00
4767;BME280;2397;53.576;9.746;2023-07-29T06:30:04;100550.00;;;19.04;100.00
4767;BME280;2397;53.576;9.746;2023-07-29T06:32:31;100551.03;;;19.03;100.00
4767;BME280;2397;53.576;9.746;2023-07-29T06:34:58;100555.34;;;19.04;100.00
4767;BME280;2397;53.576;9.746;2023-07-29T06:37:24;100551.25;;;19.02;100.00
4767;BME280;2397;53.576;9.746;2023-07-29T06:39:51;100546.94;;;19.01;100.00
4767;BME280;2397;53.576;9.746;2023-07-29T06:42:18;100547.50;;;19.16;100.00
4767;BME280;2397;53.576;9.746;2023-07-29T06:44:45;100549.75;;;19.32;100.00
4767;BME280;2397;53.576;9.746;2023-07-29T06:47:12;100546.81;;;19.40;100.00
4767;BME280;2397;53.576;9.746;2023-07-29T06:49:39;100545.59;;;19.36;100.00
4767;BME280;2397;53.576;9.746;2023-07-29T06:52:06;100555.72;;;19.34;100.00
4767;BME280;2397;53.576;9.746;2023-07-29T06:54:32;100558.19;;;19.29;100.00
4767;BME280;2397;53.576;9.746;2023-07-29T06:56:59;100555.50;;;19.29;100.00
4767;BME280;2397;53.576;9.746;2023-07-29T06:59:26;100564.16;;;19.31;100.00
4767;BME280;2397;53.576;9.746;2023-07-29T07:01:52;100567.88;;;19.30;100.00
4767;BME280;2397;53.576;9.746;2023-07-29T07:04:19;100568.28;;;19.20;100.00
4767;BME280;2397;53.576;9.746;2023-07-29T07:06:45;100567.88;;;19.17;100.00
4767;BME280;2397;53.576;9.746;2023-07-29T07:09:12;100568.28;;;19.14;100.00
4767;BME280;2397;53.576;9.746;2023-07-29T07:11:39;100568.13;;;19.09;100.00
4767;BME280;2397;53.576;9.746;2023-07-29T07:14:06;100581.66;;;19.14;100.00
4767;BME280;2397;53.576;9.746;2023-07-29T07:16:32;100581.88;;;19.19;100.00
4767;BME280;2397;53.576;9.746;2023-07-29T07:18:59;100577.34;;;19.19;100.00
4767;BME280;2397;53.576;9.746;2023-07-29T07:21:25;100583.09;;;19.29;100.00
4767;BME280;2397;53.576;9.746;2023-07-29T07:23:52;100576.72;;;19.37;100.00
4767;BME280;2397;53.576;9.746;2023-07-29T07:26:19;100573.78;;;19.38;100.00
4767;BME280;2397;53.576;9.746;2023-07-29T07:28:45;100581.03;;;19.38;100.00
4767;BME280;2397;53.576;9.746;2023-07-29T07:31:12;100571.91;;;19.45;100.00
4767;BME280;2397;53.576;9.746;2023-07-29T07:33:39;100567.41;;;19.46;100.00
4767;BME280;2397;53.576;9.746;2023-07-29T07:36:05;100580.78;;;19.46;100.00
4767;BME280;2397;53.576;9.746;2023-07-29T07:38:32;100572.75;;;19.46;100.00
4767;BME280;2397;53.576;9.746;2023-07-29T07:40:58;100569.03;;;19.47;100.00
4767;BME280;2397;53.576;9.746;2023-07-29T07:43:25;100570.53;;;19.36;100.00
4767;BME280;2397;53.576;9.746;2023-07-29T07:45:57;100577.53;;;19.31;100.00
4767;BME280;2397;53.576;9.746;2023-07-29T07:48:25;100573.84;;;19.25;100.00
4767;BME280;2397;53.576;9.746;2023-07-29T07:50:52;100569.13;;;19.14;100.00
4767;BME280;2397;53.576;9.746;2023-07-29T07:53:19;100575.91;;;19.17;100.00
4767;BME280;2397;53.576;9.746;2023-07-29T07:55:46;100571.78;;;19.21;100.00
4767;BME280;2397;53.576;9.746;2023-07-29T07:58:13;100574.28;;;19.16;100.00
4767;BME280;2397;53.576;9.746;2023-07-29T08:00:40;100571.97;;;19.19;100.00
4767;BME280;2397;53.576;9.746;2023-07-29T08:03:06;100568.69;;;19.24;100.00
4767;BME280;2397;53.576;9.746;2023-07-29T08:05:33;100569.50;;;19.18;100.00
4767;BME280;2397;53.576;9.746;2023-07-29T08:07:59;100564.78;;;19.26;100.00
4767;BME280;2397;53.576;9.746;2023-07-29T08:10:26;100570.34;;;19.31;100.00
4767;BME280;2397;53.576;9.746;2023-07-29T08:12:52;100563.28;;;19.43;100.00
4767;BME280;2397;53.576;9.746;2023-07-29T08:15:19;100566.19;;;19.42;100.00
4767;BME280;2397;53.576;9.746;2023-07-29T08:17:45;100559.78;;;19.43;100.00
4767;BME280;2397;53.576;9.746;2023-07-29T08:20:12;100563.88;;;19.45;100.00
4767;BME280;2397;53.576;9.746;2023-07-29T08:22:39;100565.34;;;19.48;100.00
4767;BME280;2397;53.576;9.746;2023-07-29T08:25:06;100563.69;;;19.47;100.00
4767;BME280;2397;53.576;9.746;2023-07-29T08:27:33;100571.91;;;19.45;100.00
4767;BME280;2397;53.576;9.746;2023-07-29T08:30:00;100569.69;;;19.42;100.00
4767;BME280;2397;53.576;9.746;2023-07-29T08:32:27;100576.69;;;19.43;100.00
4767;BME280;2397;53.576;9.746;2023-07-29T08:34:54;100578.94;;;19.40;100.00
4767;BME280;2397;53.576;9.746;2023-07-29T08:37:20;100581.03;;;19.38;100.00
4767;BME280;2397;53.576;9.746;2023-07-29T08:39:47;100576.69;;;19.43;99.90
4767;BME280;2397;53.576;9.746;2023-07-29T08:42:18;100574.59;;;19.52;99.52
4767;BME280;2397;53.576;9.746;2023-07-29T08:44:48;100568.56;;;19.63;99.46
4767;BME280;2397;53.576;9.746;2023-07-29T08:47:15;100567.28;;;19.72;99.24
4767;BME280;2397;53.576;9.746;2023-07-29T08:49:44;100568.28;;;19.77;97.90
4767;BME280;2397;53.576;9.746;2023-07-29T08:52:12;100564.28;;;19.93;97.81
4767;BME280;2397;53.576;9.746;2023-07-29T08:54:40;100575.16;;;19.98;97.11
4767;BME280;2397;53.576;9.746;2023-07-29T08:57:06;100565.81;;;20.14;97.34
4767;BME280;2397;53.576;9.746;2023-07-29T08:59:33;100569.09;;;20.09;95.50
4767;BME280;2397;53.576;9.746;2023-07-29T09:02:00;100566.97;;;20.24;95.76
4767;BME280;2397;53.576;9.746;2023-07-29T09:04:26;100559.91;;;20.30;95.47
4767;BME280;2397;53.576;9.746;2023-07-29T09:06:56;100564.47;;;20.29;95.04
4767;BME280;2397;53.576;9.746;2023-07-29T09:09:23;100563.44;;;20.30;93.89
4767;BME280;2397;53.576;9.746;2023-07-29T09:11:50;100558.66;;;20.32;93.25
4767;BME280;2397;53.576;9.746;2023-07-29T09:14:16;100547.06;;;20.38;93.68
4767;BME280;2397;53.576;9.746;2023-07-29T09:16:43;100553.56;;;20.49;93.59
4767;BME280;2397;53.576;9.746;2023-07-29T09:19:10;100552.69;;;20.55;93.37
4767;BME280;2397;53.576;9.746;2023-07-29T09:21:41;100548.84;;;20.69;93.45
4767;BME280;2397;53.576;9.746;2023-07-29T09:24:08;100547.75;;;20.76;93.35
4767;BME280;2397;53.576;9.746;2023-07-29T09:26:35;100547.78;;;20.94;92.00
4767;BME280;2397;53.576;9.746;2023-07-29T09:29:03;100550.13;;;21.09;90.14
4767;BME280;2397;53.576;9.746;2023-07-29T09:31:30;100551.66;;;21.34;90.05
4767;BME280;2397;53.576;9.746;2023-07-29T09:34:01;100546.63;;;21.26;85.84
4767;BME280;2397;53.576;9.746;2023-07-29T09:36:31;100545.25;;;21.35;86.44
4767;BME280;2397;53.576;9.746;2023-07-29T09:38:58;100536.09;;;21.43;84.57
4767;BME280;2397;53.576;9.746;2023-07-29T09:41:26;100535.84;;;21.44;81.75
4767;BME280;2397;53.576;9.746;2023-07-29T09:43:58;100539.72;;;21.48;81.67
4767;BME280;2397;53.576;9.746;2023-07-29T09:46:32;100536.38;;;21.53;81.64
4767;BME280;2397;53.576;9.746;2023-07-29T09:48:59;100535.22;;;21.78;79.79
4767;BME280;2397;53.576;9.746;2023-07-29T09:51:26;100534.47;;;21.71;79.73
4767;BME280;2397;53.576;9.746;2023-07-29T09:53:52;100539.53;;;21.79;80.05
4767;BME280;2397;53.576;9.746;2023-07-29T09:56:24;100526.38;;;21.89;78.96
4767;BME280;2397;53.576;9.746;2023-07-29T09:58:52;100528.38;;;22.05;77.41
4767;BME280;2397;53.576;9.746;2023-07-29T10:01:19;100529.00;;;22.07;77.48
4767;BME280;2397;53.576;9.746;2023-07-29T10:03:46;100531.22;;;22.22;77.96
4767;BME280;2397;53.576;9.746;2023-07-29T10:06:14;100531.28;;;22.45;76.63
4767;BME280;2397;53.576;9.746;2023-07-29T10:08:42;100527.16;;;22.42;74.01
4767;BME280;2397;53.576;9.746;2023-07-29T10:11:10;100531.28;;;22.45;73.99
4767;BME280;2397;53.576;9.746;2023-07-29T10:13:37;100529.69;;;22.67;75.46
4767;BME280;2397;53.576;9.746;2023-07-29T10:16:05;100527.44;;;22.52;72.72
4767;BME280;2397;53.576;9.746;2023-07-29T10:18:33;100520.72;;;22.32;74.09
4767;BME280;2397;53.576;9.746;2023-07-29T10:21:00;100523.31;;;22.27;71.33
4767;BME280;2397;53.576;9.746;2023-07-29T10:23:32;100517.13;;;22.38;70.66
4767;BME280;2397;53.576;9.746;2023-07-29T10:26:04;100523.00;;;22.69;69.93
4767;BME280;2397;53.576;9.746;2023-07-29T10:28:32;100529.31;;;22.63;68.15
4767;BME280;2397;53.576;9.746;2023-07-29T10:30:59;100532.34;;;22.55;68.56
4767;BME280;2397;53.576;9.746;2023-07-29T10:33:26;100519.81;;;22.38;67.33
4767;BME280;2397;53.576;9.746;2023-07-29T10:35:53;100523.63;;;22.07;71.01
4767;BME280;2397;53.576;9.746;2023-07-29T10:38:22;100529.06;;;21.89;69.44
4767;BME280;2397;53.576;9.746;2023-07-29T10:40:54;100528.19;;;21.77;72.49
4767;BME280;2397;53.576;9.746;2023-07-29T10:43:32;100531.78;;;21.71;72.15
4767;BME280;2397;53.576;9.746;2023-07-29T10:46:15;100530.81;;;21.66;72.05
4767;BME280;2397;53.576;9.746;2023-07-29T10:53:53;100527.91;;;21.67;72.39
4767;BME280;2397;53.576;9.746;2023-07-29T10:56:33;100525.41;;;21.84;72.40
4767;BME280;2397;53.576;9.746;2023-07-29T10:59:33;100520.25;;;21.82;71.41
4767;BME280;2397;53.576;9.746;2023-07-29T11:02:12;100515.56;;;22.07;71.81
4767;BME280;2397;53.576;9.746;2023-07-29T11:04:50;100504.75;;;22.48;71.01
4767;BME280;2397;53.576;9.746;2023-07-29T11:09:54;100510.06;;;23.18;67.54
4767;BME280;2397;53.576;9.746;2023-07-29T11:12:42;100506.66;;;23.62;67.25
4767;BME280;2397;53.576;9.746;2023-07-29T11:17:41;100498.50;;;23.73;64.73
4767;BME280;2397;53.576;9.746;2023-07-29T11:20:08;100501.91;;;23.97;62.75
4767;BME280;2397;53.576;9.746;2023-07-29T11:22:36;100508.94;;;23.70;61.97
4767;BME280;2397;53.576;9.746;2023-07-29T11:25:03;100502.34;;;24.05;63.81
4767;BME280;2397;53.576;9.746;2023-07-29T11:27:29;100507.91;;;24.65;63.37
4767;BME280;2397;53.576;9.746;2023-07-29T11:30:00;100499.44;;;24.78;60.36
4767;BME280;2397;53.576;9.746;2023-07-29T11:32:29;100492.19;;;25.00;57.57
4767;BME280;2397;53.576;9.746;2023-07-29T11:34:56;100493.44;;;24.92;58.31
4767;BME280;2397;53.576;9.746;2023-07-29T11:37:22;100494.31;;;24.98;55.75
4767;BME280;2397;53.576;9.746;2023-07-29T11:39:49;100502.06;;;24.56;57.93
4767;BME280;2397;53.576;9.746;2023-07-29T11:42:15;100510.03;;;24.63;59.84
4767;BME280;2397;53.576;9.746;2023-07-29T11:44:42;100504.94;;;24.00;58.96
4767;BME280;2397;53.576;9.746;2023-07-29T11:47:10;100507.47;;;23.79;59.54
4767;BME280;2397;53.576;9.746;2023-07-29T11:49:41;100511.16;;;24.34;60.03
4767;BME280;2397;53.576;9.746;2023-07-29T11:52:08;100492.34;;;25.15;56.26
4767;BME280;2397;53.576;9.746;2023-07-29T11:54:37;100500.28;;;25.00;57.04
4767;BME280;2397;53.576;9.746;2023-07-29T11:57:08;100498.50;;;24.18;57.54
4767;BME280;2397;53.576;9.746;2023-07-29T11:59:37;100511.72;;;23.75;59.58
4767;BME280;2397;53.576;9.746;2023-07-29T12:02:07;100501.34;;;23.95;58.94
4767;BME280;2397;53.576;9.746;2023-07-29T12:04:36;100505.59;;;24.40;58.25
4767;BME280;2397;53.576;9.746;2023-07-29T12:07:04;100495.63;;;24.41;55.72
4767;BME280;2397;53.576;9.746;2023-07-29T12:09:31;100509.69;;;24.43;57.37
4767;BME280;2397;53.576;9.746;2023-07-29T12:11:58;100498.16;;;24.31;56.13
4767;BME280;2397;53.576;9.746;2023-07-29T12:14:34;100484.81;;;24.57;55.47
4767;BME280;2397;53.576;9.746;2023-07-29T12:17:03;100499.78;;;25.03;55.28
4767;BME280;2397;53.576;9.746;2023-07-29T12:19:34;100492.19;;;25.43;54.61
4767;BME280;2397;53.576;9.746;2023-07-29T12:22:02;100465.72;;;25.71;51.58
4767;BME280;2397;53.576;9.746;2023-07-29T12:24:33;100468.69;;;25.97;50.85
4767;BME280;2397;53.576;9.746;2023-07-29T12:27:00;100468.06;;;26.21;50.98
4767;BME280;2397;53.576;9.746;2023-07-29T12:29:27;100461.44;;;25.75;50.60
4767;BME280;2397;53.576;9.746;2023-07-29T12:32:12;100472.34;;;25.85;50.52
4767;BME280;2397;53.576;9.746;2023-07-29T12:34:40;100470.03;;;26.31;50.76
4767;BME280;2397;53.576;9.746;2023-07-29T12:37:07;100461.25;;;26.55;49.59
4767;BME280;2397;53.576;9.746;2023-07-29T12:39:39;100463.69;;;26.93;48.93
4767;BME280;2397;53.576;9.746;2023-07-29T12:42:07;100465.44;;;26.31;50.56
4767;BME280;2397;53.576;9.746;2023-07-29T12:44:35;100473.09;;;26.44;50.27
4767;BME280;2397;53.576;9.746;2023-07-29T12:47:03;100472.69;;;25.94;51.24
4767;BME280;2397;53.576;9.746;2023-07-29T12:49:30;100485.34;;;25.35;53.33
4767;BME280;2397;53.576;9.746;2023-07-29T12:51:58;100503.91;;;24.89;55.01
4767;BME280;2397;53.576;9.746;2023-07-29T12:54:25;100505.50;;;24.52;56.63
4767;BME280;2397;53.576;9.746;2023-07-29T12:56:52;100513.69;;;24.40;57.67
4767;BME280;2397;53.576;9.746;2023-07-29T12:59:18;100500.75;;;24.59;57.72
4767;BME280;2397;53.576;9.746;2023-07-29T13:01:45;100504.44;;;25.29;55.27
4767;BME280;2397;53.576;9.746;2023-07-29T13:04:12;100477.16;;;26.05;52.51
4767;BME280;2397;53.576;9.746;2023-07-29T13:06:38;100466.97;;;26.59;50.80
4767;BME280;2397;53.576;9.746;2023-07-29T13:09:06;100487.66;;;26.75;51.89
4767;BME280;2397;53.576;9.746;2023-07-29T13:11:32;100468.59;;;26.18;50.27
4767;BME280;2397;53.576;9.746;2023-07-29T13:13:59;100481.19;;;25.49;52.08
4767;BME280;2397;53.576;9.746;2023-07-29T13:16:30;100491.53;;;24.93;53.93
4767;BME280;2397;53.576;9.746;2023-07-29T13:18:57;100507.25;;;25.17;54.62
4767;BME280;2397;53.576;9.746;2023-07-29T13:21:23;100503.25;;;25.94;52.78